createdAt,value
2023-03-16T00:00:39.173Z,99438.94
2023-03-16T00:03:07.540Z,99444.88
2023-03-16T00:05:37.106Z,99443.91
2023-03-16T00:08:06.139Z,99443.78
2023-03-16T00:10:36.756Z,99444.06
2023-03-16T00:13:05.082Z,99438.94
2023-03-16T00:15:33.720Z,99441.47
2023-03-16T00:18:02.027Z,99433.38
2023-03-16T00:20:30.237Z,99445.09
2023-03-16T00:22:58.689Z,99437.88
2023-03-16T00:25:27.047Z,99439.78
2023-03-16T00:27:57.056Z,99451.88
2023-03-16T00:30:25.959Z,99437.78
2023-03-16T00:32:55.119Z,99447.06
2023-03-16T00:35:23.541Z,99438.03
2023-03-16T00:37:52.029Z,99445.38
2023-03-16T00:40:20.505Z,99442.38
2023-03-16T00:42:48.771Z,99442.44
2023-03-16T00:45:18.947Z,99446.19
2023-03-16T00:47:47.454Z,99440.50
2023-03-16T00:50:15.793Z,99431.94
2023-03-16T00:52:44.252Z,99432.06
2023-03-16T00:55:13.340Z,99431.41
2023-03-16T00:57:41.695Z,99442.88
2023-03-16T01:00:13.493Z,99431.28
2023-03-16T01:02:45.390Z,99432.38
2023-03-16T01:05:14.548Z,99428.44
2023-03-16T01:07:45.321Z,99431.22
2023-03-16T01:10:16.124Z,99430.19
2023-03-16T01:12:45.505Z,99438.81
2023-03-16T01:15:14.054Z,99436.91
2023-03-16T01:17:43.887Z,99434.09
2023-03-16T01:20:15.071Z,99433.94
2023-03-16T01:22:43.542Z,99438.09
2023-03-16T01:25:13.628Z,99436.72
2023-03-16T01:27:42.352Z,99440.81
2023-03-16T01:30:13.104Z,99433.44
2023-03-16T01:32:41.827Z,99437.72
2023-03-16T01:35:11.981Z,99445.41
2023-03-16T01:37:40.294Z,99446.50
2023-03-16T01:40:11.770Z,99451.34
2023-03-16T01:42:49.356Z,99449.78
2023-03-16T01:45:54.520Z,99457.94
2023-03-16T01:48:25.824Z,99456.69
2023-03-16T01:50:56.937Z,99454.44
2023-03-16T01:53:27.212Z,99453.06
2023-03-16T01:55:56.209Z,99456.06
2023-03-16T01:58:25.113Z,99456.50
2023-03-16T02:00:54.079Z,99459.47
2023-03-16T02:03:24.183Z,99465.09
2023-03-16T02:05:59.210Z,99469.66
2023-03-16T02:08:29.349Z,99469.16
2023-03-16T02:10:58.640Z,99473.41
2023-03-16T02:13:29.801Z,99467.59
2023-03-16T02:15:58.498Z,99477.44
2023-03-16T02:18:28.807Z,99474.59
2023-03-16T02:21:08.667Z,99472.13
2023-03-16T02:23:37.084Z,99486.34
2023-03-16T02:26:13.688Z,99488.53
2023-03-16T02:28:51.575Z,99490.41
2023-03-16T02:31:22.691Z,99497.13
2023-03-16T02:33:52.149Z,99503.22
2023-03-16T02:36:21.152Z,99502.94
2023-03-16T02:38:49.777Z,99495.72
2023-03-16T02:41:19.892Z,99499.38
2023-03-16T02:43:53.703Z,99501.22
2023-03-16T02:46:26.835Z,99496.09
2023-03-16T02:49:03.179Z,99496.88
2023-03-16T02:51:32.455Z,99500.63
2023-03-16T02:54:00.800Z,99503.19
2023-03-16T02:56:29.349Z,99506.06
2023-03-16T02:58:57.996Z,99499.66
2023-03-16T03:01:27.800Z,99501.50
2023-03-16T03:03:56.246Z,99501.66
2023-03-16T03:06:26.331Z,99495.69
2023-03-16T03:08:54.655Z,99492.06
2023-03-16T03:11:23.125Z,99502.13
2023-03-16T03:13:51.822Z,99511.81
2023-03-16T03:16:20.274Z,99514.38
2023-03-16T03:18:50.477Z,99515.44
2023-03-16T03:21:18.848Z,99519.44
2023-03-16T03:23:47.459Z,99524.09
2023-03-16T03:26:16.084Z,99525.56
2023-03-16T03:28:45.750Z,99536.38
2023-03-16T03:31:16.226Z,99527.31
2023-03-16T03:33:44.609Z,99531.03
2023-03-16T03:36:14.724Z,99529.00
2023-03-16T03:38:43.601Z,99532.88
2023-03-16T03:41:12.017Z,99534.56
2023-03-16T03:43:41.106Z,99538.13
2023-03-16T03:46:09.715Z,99534.81
2023-03-16T03:48:38.442Z,99542.63
2023-03-16T03:51:07.136Z,99542.31
2023-03-16T03:53:37.455Z,99550.47
2023-03-16T03:56:06.068Z,99557.38
2023-03-16T03:58:34.617Z,99558.31
2023-03-16T04:01:03.185Z,99559.91
2023-03-16T04:03:31.677Z,99564.25
2023-03-16T04:06:00.417Z,99568.22
2023-03-16T04:08:29.574Z,99569.19
2023-03-16T04:10:59.566Z,99565.47
2023-03-16T04:13:27.949Z,99574.69
2023-03-16T04:15:59.136Z,99577.97
2023-03-16T04:18:27.722Z,99576.69
2023-03-16T04:20:56.522Z,99579.66
2023-03-16T04:23:26.237Z,99583.00
2023-03-16T04:25:54.985Z,99587.34
2023-03-16T04:28:26.572Z,99586.56
2023-03-16T04:30:55.208Z,99593.47
2023-03-16T04:33:23.945Z,99600.25
2023-03-16T04:35:52.716Z,99611.84
2023-03-16T04:38:21.371Z,99609.28
2023-03-16T04:40:49.866Z,99608.69
2023-03-16T04:43:18.646Z,99612.63
2023-03-16T04:45:48.622Z,99609.25
2023-03-16T04:48:17.110Z,99609.94
2023-03-16T04:50:45.723Z,99611.03
2023-03-16T04:53:14.288Z,99613.47
2023-03-16T04:55:44.547Z,99614.56
2023-03-16T04:58:13.778Z,99622.06
2023-03-16T05:00:44.572Z,99618.72
2023-03-16T05:03:14.799Z,99622.69
2023-03-16T05:05:43.489Z,99620.31
2023-03-16T05:08:12.391Z,99628.31
2023-03-16T05:10:41.218Z,99621.91
2023-03-16T05:13:10.152Z,99625.03
2023-03-16T05:15:38.651Z,99628.84
2023-03-16T05:18:07.178Z,99630.13
2023-03-16T05:20:37.028Z,99632.31
2023-03-16T05:23:08.319Z,99626.00
2023-03-16T05:25:36.650Z,99636.47
2023-03-16T05:28:07.088Z,99641.25
2023-03-16T05:30:36.982Z,99646.06
2023-03-16T05:33:06.053Z,99655.53
2023-03-16T05:35:34.513Z,99646.13
2023-03-16T05:38:04.357Z,99648.78
2023-03-16T05:40:33.694Z,99659.63
2023-03-16T05:43:02.181Z,99652.38
2023-03-16T05:45:30.481Z,99650.91
2023-03-16T05:47:58.887Z,99647.03
2023-03-16T05:50:28.731Z,99659.16
2023-03-16T05:52:57.200Z,99655.13
2023-03-16T05:55:26.990Z,99659.59
2023-03-16T05:57:55.365Z,99659.16
2023-03-16T06:00:25.871Z,99664.47
2023-03-16T06:02:54.910Z,99664.31
2023-03-16T06:05:24.654Z,99670.44
2023-03-16T06:07:53.640Z,99667.19
2023-03-16T06:10:22.539Z,99675.31
2023-03-16T06:12:52.557Z,99672.84
2023-03-16T06:15:25.079Z,99679.31
2023-03-16T06:17:53.913Z,99684.16
2023-03-16T06:20:22.848Z,99682.53
2023-03-16T06:22:52.205Z,99682.53
2023-03-16T06:25:21.211Z,99683.75
2023-03-16T06:27:51.048Z,99690.72
2023-03-16T06:30:21.490Z,99698.03
2023-03-16T06:32:50.304Z,99698.78
2023-03-16T06:35:19.454Z,99709.91
2023-03-16T06:37:48.049Z,99716.38
2023-03-16T06:40:16.977Z,99719.22
2023-03-16T06:42:47.062Z,99718.44
2023-03-16T06:45:17.721Z,99721.59
2023-03-16T06:47:47.620Z,99719.22
2023-03-16T06:50:16.260Z,99730.09
2023-03-16T06:52:44.764Z,99732.88
2023-03-16T06:55:14.596Z,99746.03
2023-03-16T06:57:43.105Z,99737.34
2023-03-16T07:00:15.710Z,99746.94
2023-03-16T07:02:45.626Z,99748.91
2023-03-16T07:05:15.588Z,99765.34
2023-03-16T07:07:45.677Z,99762.75
2023-03-16T07:10:15.799Z,99765.41
2023-03-16T07:12:44.515Z,99755.66
2023-03-16T07:15:13.729Z,99771.75
2023-03-16T07:17:42.802Z,99774.63
2023-03-16T07:20:14.467Z,99781.13
2023-03-16T07:22:43.101Z,99784.09
2023-03-16T07:25:12.663Z,99782.22
2023-03-16T07:27:43.802Z,99798.22
2023-03-16T07:30:14.475Z,99787.09
2023-03-16T07:32:43.020Z,99803.66
2023-03-16T07:35:12.703Z,99806.13
2023-03-16T07:37:43.361Z,99795.97
2023-03-16T07:40:13.031Z,99809.19
2023-03-16T07:42:41.616Z,99809.97
2023-03-16T07:45:12.351Z,99809.88
2023-03-16T07:47:41.901Z,99819.94
2023-03-16T07:50:12.001Z,99823.19
2023-03-16T07:52:43.122Z,99814.13
2023-03-16T07:55:12.011Z,99836.19
2023-03-16T07:57:42.273Z,99829.59
2023-03-16T08:00:14.315Z,99834.72
2023-03-16T08:02:43.329Z,99840.03
2023-03-16T08:05:13.016Z,99838.97
2023-03-16T08:07:43.539Z,99839.16
2023-03-16T08:10:13.005Z,99837.09
2023-03-16T08:12:41.985Z,99853.16
2023-03-16T08:15:12.271Z,99851.88
2023-03-16T08:17:42.305Z,99853.63
2023-03-16T08:20:14.614Z,99858.59
2023-03-16T08:22:46.550Z,99852.81
2023-03-16T08:25:16.180Z,99860.72
2023-03-16T08:27:44.879Z,99857.47
2023-03-16T08:30:15.132Z,99864.16
2023-03-16T08:32:43.671Z,99865.66
2023-03-16T08:35:14.964Z,99871.47
2023-03-16T08:37:46.554Z,99866.63
2023-03-16T08:40:16.899Z,99877.13
2023-03-16T08:42:45.950Z,99880.09
2023-03-16T08:45:15.123Z,99874.75
2023-03-16T08:47:43.615Z,99873.47
2023-03-16T08:50:13.856Z,99876.56
2023-03-16T08:52:42.955Z,99877.72
2023-03-16T08:55:13.523Z,99907.91
2023-03-16T08:57:41.956Z,99888.03
2023-03-16T09:00:13.601Z,99885.13
2023-03-16T09:02:42.699Z,99891.75
2023-03-16T09:05:13.149Z,99892.19
2023-03-16T09:07:42.430Z,99888.94
2023-03-16T09:10:16.492Z,99902.25
2023-03-16T09:12:45.777Z,99895.19
2023-03-16T09:15:15.257Z,99913.78
2023-03-16T09:17:46.072Z,99904.91
2023-03-16T09:20:22.728Z,99913.47
2023-03-16T09:22:54.845Z,99907.72
2023-03-16T09:25:25.578Z,99907.88
2023-03-16T09:27:54.244Z,99912.31
2023-03-16T09:30:22.899Z,99913.88
2023-03-16T09:32:51.624Z,99925.34
2023-03-16T09:35:20.426Z,99926.44
2023-03-16T09:38:05.183Z,99922.81
2023-03-16T09:40:38.419Z,99936.34
2023-03-16T09:43:37.965Z,99942.22
2023-03-16T09:46:12.390Z,99926.69
2023-03-16T09:48:41.421Z,99941.19
2023-03-16T09:51:19.897Z,99954.50
2023-03-16T09:53:50.674Z,99943.75
2023-03-16T09:56:29.390Z,99956.84
2023-03-16T09:58:59.460Z,99953.41
2023-03-16T10:01:41.630Z,99954.88
2023-03-16T10:04:25.671Z,99953.72
2023-03-16T10:07:03.960Z,99957.28
2023-03-16T10:09:38.452Z,99959.22
2023-03-16T10:12:10.027Z,99962.38
2023-03-16T10:14:46.998Z,99960.31
2023-03-16T10:17:18.654Z,99964.31
2023-03-16T10:19:51.443Z,99962.66
2023-03-16T10:22:23.557Z,99965.72
2023-03-16T10:25:03.963Z,99961.59
2023-03-16T10:27:36.776Z,99972.94
2023-03-16T10:30:09.254Z,99967.41
2023-03-16T10:32:38.573Z,99965.41
2023-03-16T10:35:21.015Z,99953.03
2023-03-16T10:37:50.362Z,99957.19
2023-03-16T10:40:20.460Z,99968.41
2023-03-16T10:42:50.662Z,99961.31
2023-03-16T10:45:27.616Z,99966.66
2023-03-16T10:48:06.785Z,99961.06
2023-03-16T10:50:35.486Z,99956.59
2023-03-16T10:53:04.259Z,99948.72
2023-03-16T10:55:43.741Z,99945.25
2023-03-16T10:58:27.544Z,99952.47
2023-03-16T11:00:58.025Z,99950.69
2023-03-16T11:03:29.437Z,99953.94
2023-03-16T11:06:02.783Z,99950.06
2023-03-16T11:08:35.415Z,99945.94
2023-03-16T11:11:11.946Z,99955.44
2023-03-16T11:13:47.905Z,99943.63
2023-03-16T11:16:26.385Z,99942.47
2023-03-16T11:18:58.820Z,99939.44
2023-03-16T11:21:39.827Z,99946.84
2023-03-16T11:24:17.304Z,99935.91
2023-03-16T11:26:50.015Z,99943.50
2023-03-16T11:29:25.300Z,99946.16
2023-03-16T11:31:57.546Z,99941.06
2023-03-16T11:34:30.687Z,99955.38
2023-03-16T11:37:07.339Z,99949.84
2023-03-16T11:39:42.934Z,99951.34
2023-03-16T11:42:24.512Z,99958.88
2023-03-16T11:44:59.625Z,99958.81
2023-03-16T11:47:54.187Z,99957.81
2023-03-16T11:50:30.610Z,99954.88
2023-03-16T11:53:07.244Z,99967.09
2023-03-16T11:55:45.550Z,99959.91
2023-03-16T11:58:36.367Z,99966.66
2023-03-16T12:01:13.387Z,99970.84
2023-03-16T12:03:58.430Z,99979.91
2023-03-16T12:06:48.797Z,99981.44
2023-03-16T12:09:54.157Z,99974.66
2023-03-16T12:12:35.666Z,99986.91
2023-03-16T12:15:18.291Z,99999.13
2023-03-16T12:17:51.103Z,99988.72
2023-03-16T12:20:24.876Z,99997.72
2023-03-16T12:22:57.620Z,100010.16
2023-03-16T12:25:31.829Z,99995.34
2023-03-16T12:28:03.492Z,100012.69
2023-03-16T12:30:44.138Z,100007.50
2023-03-16T12:33:23.887Z,100015.16
2023-03-16T12:36:03.997Z,100007.44
2023-03-16T12:38:46.340Z,100008.53
2023-03-16T12:41:27.138Z,100006.88
2023-03-16T12:44:10.177Z,100005.94
2023-03-16T12:46:48.025Z,100011.69
2023-03-16T12:49:19.304Z,100020.81
2023-03-16T12:51:49.125Z,100018.69
2023-03-16T12:54:22.043Z,100008.03
2023-03-16T12:56:53.978Z,100018.59
2023-03-16T12:59:24.300Z,100024.16
2023-03-16T13:01:58.239Z,100034.28
2023-03-16T13:04:34.054Z,100030.41
2023-03-16T13:07:06.403Z,100029.91
2023-03-16T13:09:37.731Z,100035.84
2023-03-16T13:12:06.782Z,100032.97
2023-03-16T13:14:40.609Z,100039.75
2023-03-16T13:17:30.040Z,100046.50
2023-03-16T13:20:30.761Z,100041.84
2023-03-16T13:23:22.280Z,100048.25
2023-03-16T13:26:03.948Z,100044.94
2023-03-16T13:28:34.741Z,100049.19
2023-03-16T13:31:04.941Z,100058.31
2023-03-16T13:33:36.962Z,100057.03
2023-03-16T13:36:07.716Z,100054.06
2023-03-16T13:38:36.332Z,100061.78
2023-03-16T13:41:07.546Z,100070.56
2023-03-16T13:43:40.605Z,100061.56
2023-03-16T13:46:19.038Z,100065.00
2023-03-16T13:48:49.579Z,100070.84
2023-03-16T13:51:22.856Z,100072.88
2023-03-16T13:53:53.690Z,100071.50
2023-03-16T13:56:27.213Z,100081.22
2023-03-16T13:58:58.837Z,100075.59
2023-03-16T14:01:29.695Z,100082.28
2023-03-16T14:04:05.724Z,100090.28
2023-03-16T14:06:36.186Z,100091.59
2023-03-16T14:09:08.200Z,100089.22
2023-03-16T14:11:37.328Z,100094.88
2023-03-16T14:14:16.168Z,100101.84
2023-03-16T14:16:45.841Z,100097.88
2023-03-16T14:19:20.601Z,100101.69
2023-03-16T14:21:50.471Z,100102.31
2023-03-16T14:24:30.889Z,100093.91
2023-03-16T14:27:10.697Z,100109.94
2023-03-16T14:29:43.142Z,100104.94
2023-03-16T14:32:23.707Z,100103.94
2023-03-16T14:34:52.467Z,100108.13
2023-03-16T14:37:22.519Z,100109.50
2023-03-16T14:40:02.727Z,100115.66
2023-03-16T14:42:32.366Z,100121.31
2023-03-16T14:45:02.146Z,100125.31
2023-03-16T14:47:32.987Z,100114.09
2023-03-16T14:50:10.134Z,100114.66
2023-03-16T14:52:40.787Z,100114.66
2023-03-16T14:55:14.833Z,100126.09
2023-03-16T14:57:45.193Z,100122.06
2023-03-16T15:00:16.876Z,100145.88
2023-03-16T15:02:47.227Z,100138.69
2023-03-16T15:05:23.144Z,100148.91
2023-03-16T15:07:56.153Z,100154.50
2023-03-16T15:10:27.487Z,100140.44
2023-03-16T15:13:04.286Z,100142.31
2023-03-16T15:15:34.034Z,100155.91
2023-03-16T15:18:02.420Z,100151.97
2023-03-16T15:20:35.381Z,100163.66
2023-03-16T15:23:06.190Z,100169.28
2023-03-16T15:25:36.996Z,100169.59
2023-03-16T15:28:13.694Z,100175.41
2023-03-16T15:30:42.284Z,100181.81
2023-03-16T15:33:11.868Z,100177.06
2023-03-16T15:35:41.446Z,100193.56
2023-03-16T15:38:17.992Z,100188.75
2023-03-16T15:40:48.181Z,100199.94
2023-03-16T15:43:18.223Z,100199.44
2023-03-16T15:45:48.119Z,100197.09
2023-03-16T15:48:17.058Z,100205.34
2023-03-16T15:50:53.990Z,100199.50
2023-03-16T15:53:31.278Z,100219.16
2023-03-16T15:56:03.321Z,100214.91
2023-03-16T15:58:32.827Z,100216.22
2023-03-16T16:01:02.922Z,100213.34
2023-03-16T16:03:31.626Z,100218.63
2023-03-16T16:05:59.971Z,100226.88
2023-03-16T16:08:30.137Z,100226.06
2023-03-16T16:11:00.378Z,100232.44
2023-03-16T16:13:43.708Z,100243.09
2023-03-16T16:16:14.796Z,100237.78
2023-03-16T16:18:43.974Z,100256.16
2023-03-16T16:21:18.246Z,100245.78
2023-03-16T16:23:48.003Z,100279.53
2023-03-16T16:26:34.376Z,100260.66
2023-03-16T16:29:15.013Z,100275.00
2023-03-16T16:31:43.885Z,100270.22
2023-03-16T16:34:14.743Z,100276.59
2023-03-16T16:36:43.434Z,100283.50
2023-03-16T16:39:13.902Z,100289.09
2023-03-16T16:41:44.098Z,100283.50
2023-03-16T16:44:18.691Z,100286.44
2023-03-16T16:46:49.409Z,100293.88
2023-03-16T16:49:21.196Z,100306.09
2023-03-16T16:51:49.588Z,100309.56
2023-03-16T16:54:22.053Z,100313.53
2023-03-16T16:56:52.981Z,100320.94
2023-03-16T16:59:22.949Z,100316.97
2023-03-16T17:01:54.130Z,100335.06
2023-03-16T17:04:25.463Z,100340.09
2023-03-16T17:06:58.584Z,100333.97
2023-03-16T17:09:30.315Z,100341.41
2023-03-16T17:12:00.109Z,100355.75
2023-03-16T17:14:29.156Z,100345.66
2023-03-16T17:16:59.971Z,100351.25
2023-03-16T17:19:29.707Z,100350.97
2023-03-16T17:21:59.367Z,100356.00
2023-03-16T17:24:29.826Z,100355.75
2023-03-16T17:27:01.869Z,100357.91
2023-03-16T17:29:32.578Z,100362.38
2023-03-16T17:32:02.726Z,100360.00
2023-03-16T17:34:34.372Z,100374.63
2023-03-16T17:37:02.857Z,100378.84
2023-03-16T17:39:35.017Z,100377.53
2023-03-16T17:42:05.581Z,100375.41
2023-03-16T17:44:36.198Z,100388.44
2023-03-16T17:47:05.214Z,100373.53
2023-03-16T17:49:33.985Z,100382.31
2023-03-16T17:52:02.892Z,100384.97
2023-03-16T17:54:32.810Z,100386.28
2023-03-16T17:57:01.287Z,100387.38
2023-03-16T17:59:29.631Z,100391.09
2023-03-16T18:01:58.039Z,100388.94
2023-03-16T18:04:27.833Z,100393.47
2023-03-16T18:06:56.110Z,100398.25
2023-03-16T18:09:24.542Z,100395.06
2023-03-16T18:11:54.292Z,100404.59
2023-03-16T18:14:28.286Z,100408.88
2023-03-16T18:16:56.873Z,100402.22
2023-03-16T18:19:26.921Z,100414.16
2023-03-16T18:21:55.212Z,100405.66
2023-03-16T18:24:26.827Z,100414.97
2023-03-16T18:26:56.665Z,100422.13
2023-03-16T18:29:25.126Z,100414.16
2023-03-16T18:31:57.145Z,100428.50
2023-03-16T18:34:27.310Z,100422.38
2023-03-16T18:36:59.768Z,100432.22
2023-03-16T18:39:28.715Z,100428.78
2023-03-16T18:41:58.390Z,100430.59
2023-03-16T18:44:27.429Z,100437.78
2023-03-16T18:47:02.138Z,100439.66
2023-03-16T18:49:34.504Z,100425.84
2023-03-16T18:52:03.004Z,100445.22
2023-03-16T18:54:33.155Z,100445.50
2023-03-16T18:57:05.744Z,100440.69
2023-03-16T18:59:34.099Z,100445.47
2023-03-16T19:02:03.138Z,100452.38
2023-03-16T19:04:32.984Z,100453.97
2023-03-16T19:07:01.626Z,100449.97
2023-03-16T19:09:32.356Z,100444.41
2023-03-16T19:12:03.710Z,100471.22
2023-03-16T19:14:34.900Z,100464.56
2023-03-16T19:17:03.317Z,100465.91
2023-03-16T19:19:31.724Z,100463.50
2023-03-16T19:22:06.700Z,100467.78
2023-03-16T19:24:38.604Z,100459.25
2023-03-16T19:27:20.777Z,100466.66
2023-03-16T19:29:52.026Z,100454.44
2023-03-16T19:32:22.070Z,100455.25
2023-03-16T19:34:51.316Z,100461.88
2023-03-16T19:37:20.043Z,100460.53
2023-03-16T19:39:48.459Z,100449.41
2023-03-16T19:42:22.569Z,100463.97
2023-03-16T19:44:52.076Z,100457.84
2023-03-16T19:47:29.569Z,100462.34
2023-03-16T19:49:58.808Z,100465.81
2023-03-16T19:52:28.299Z,100473.75
2023-03-16T19:54:56.675Z,100463.41
2023-03-16T19:57:26.832Z,100467.63
2023-03-16T19:59:58.530Z,100469.22
2023-03-16T20:02:28.783Z,100470.81
2023-03-16T20:04:57.710Z,100475.56
2023-03-16T20:07:26.063Z,100477.13
2023-03-16T20:09:54.460Z,100483.50
2023-03-16T20:12:27.263Z,100495.69
2023-03-16T20:14:57.639Z,100502.88
2023-03-16T20:17:28.406Z,100499.13
2023-03-16T20:19:57.925Z,100519.31
2023-03-16T20:22:28.582Z,100511.88
2023-03-16T20:24:58.195Z,100515.88
2023-03-16T20:27:29.065Z,100518.78
2023-03-16T20:29:57.442Z,100533.88
2023-03-16T20:32:32.355Z,100522.19
2023-03-16T20:35:00.984Z,100520.06
2023-03-16T20:37:31.458Z,100520.34
2023-03-16T20:40:00.816Z,100524.03
2023-03-16T20:42:32.795Z,100526.47
2023-03-16T20:45:01.735Z,100521.94
2023-03-16T20:47:30.226Z,100526.16
2023-03-16T20:49:58.601Z,100528.56
2023-03-16T20:52:31.083Z,100532.28
2023-03-16T20:54:59.857Z,100533.84
2023-03-16T20:57:31.761Z,100536.75
2023-03-16T21:00:00.076Z,100532.50
2023-03-16T21:02:32.077Z,100541.28
2023-03-16T21:05:02.123Z,100531.22
2023-03-16T21:07:32.114Z,100536.53
2023-03-16T21:10:01.152Z,100542.59
2023-03-16T21:12:33.230Z,100532.03
2023-03-16T21:15:03.413Z,100543.44
2023-03-16T21:17:33.418Z,100538.66
2023-03-16T21:20:02.310Z,100541.53
2023-03-16T21:22:33.115Z,100532.03
2023-03-16T21:25:01.770Z,100541.81
2023-03-16T21:27:35.442Z,100534.44
2023-03-16T21:30:11.819Z,100529.41
2023-03-16T21:32:40.314Z,100531.22
2023-03-16T21:35:14.562Z,100534.94
2023-03-16T21:37:43.391Z,100526.16
2023-03-16T21:40:18.601Z,100543.44
2023-03-16T21:42:49.057Z,100535.47
2023-03-16T21:45:17.982Z,100530.69
2023-03-16T21:47:47.505Z,100540.25
2023-03-16T21:50:22.054Z,100527.00
2023-03-16T21:52:50.990Z,100532.56
2023-03-16T21:55:24.567Z,100541.59
2023-03-16T21:57:55.333Z,100542.34
2023-03-16T22:00:26.287Z,100543.47
2023-03-16T22:02:57.758Z,100537.41
2023-03-16T22:05:44.093Z,100544.78
2023-03-16T22:08:16.169Z,100539.72
2023-03-16T22:10:44.529Z,100539.44
2023-03-16T22:13:14.565Z,100546.09
2023-03-16T22:15:43.887Z,100543.44
2023-03-16T22:18:29.203Z,100540.78
2023-03-16T22:20:58.859Z,100549.25
2023-03-16T22:23:34.234Z,100543.16
2023-03-16T22:26:03.244Z,100543.66
2023-03-16T22:28:34.188Z,100548.72
2023-03-16T22:31:08.820Z,100552.16
2023-03-16T22:33:38.963Z,100555.56
2023-03-16T22:36:11.776Z,100555.84
2023-03-16T22:38:41.657Z,100558.25
2023-03-16T22:41:13.959Z,100554.47
2023-03-16T22:43:46.284Z,100554.47
2023-03-16T22:46:20.674Z,100557.94
2023-03-16T22:48:49.331Z,100562.66
2023-03-16T22:51:25.273Z,100560.84
2023-03-16T22:53:56.232Z,100565.00
2023-03-16T22:56:25.652Z,100554.13
2023-03-16T22:58:58.490Z,100554.41
2023-03-16T23:01:33.811Z,100574.00
2023-03-16T23:04:02.627Z,100574.47
2023-03-16T23:06:33.614Z,100571.81
2023-03-16T23:09:02.454Z,100576.34
2023-03-16T23:11:33.256Z,100591.31
2023-03-16T23:14:03.635Z,100577.56
2023-03-16T23:16:36.668Z,100592.66
2023-03-16T23:19:24.370Z,100580.97
2023-03-16T23:21:54.699Z,100581.50
2023-03-16T23:24:23.434Z,100579.59
2023-03-16T23:26:53.118Z,100580.69
2023-03-16T23:29:24.167Z,100581.22
2023-03-16T23:31:53.870Z,100590.19
2023-03-16T23:34:24.060Z,100588.63
2023-03-16T23:36:53.144Z,100589.69
2023-03-16T23:39:21.507Z,100584.63
2023-03-16T23:41:54.428Z,100576.44
2023-03-16T23:44:28.353Z,100576.69
2023-03-16T23:46:58.051Z,100591.28
2023-03-16T23:49:30.922Z,100584.97
2023-03-16T23:52:01.911Z,100591.91
2023-03-16T23:54:32.086Z,100588.16
2023-03-16T23:57:00.724Z,100591.91
2023-03-16T23:59:30.504Z,100608.84
